Time;durP1;ratioP1;P1;durP2;ratioP2;P2;SDS_P1;SDS_P2;PMS_P1;PMS_P2;Temp;Humidity;BMP_temperature;BMP_pressure;BME280_temperature;BME280_humidity;BME280_pressure;Samples;Min_cycle;Max_cycle;Signal;HPM_P1;HPM_P2
2022/11/14 00:02:46;;;;;;;20.10;13.17;;;9.90;99.90;;;;;;10342985;28;20196;-79
2022/11/14 00:08:26;;;;;;;22.83;13.60;;;9.90;99.90;;;;;;10371187;28;20195;-81
2022/11/14 00:14:09;;;;;;;20.00;13.00;;;9.80;99.90;;;;;;10345883;28;20486;-87
2022/11/14 00:19:49;;;;;;;18.43;11.60;;;9.70;99.90;;;;;;10344119;28;20234;-79
2022/11/14 00:25:30;;;;;;;18.87;10.67;;;9.70;99.90;;;;;;10360148;28;20491;-80
2022/11/14 00:31:10;;;;;;;15.50;11.27;;;9.70;99.90;;;;;;10342842;28;20212;-79
2022/11/14 00:36:50;;;;;;;14.30;9.87;;;9.70;99.90;;;;;;10360045;28;20507;-79
2022/11/14 00:42:30;;;;;;;16.90;10.77;;;9.70;99.90;;;;;;10342687;28;20427;-78
2022/11/14 00:48:10;;;;;;;16.80;9.87;;;9.70;99.90;;;;;;10342663;28;20227;-81
2022/11/14 00:53:50;;;;;;;16.70;9.70;;;9.60;99.90;;;;;;10341811;28;20216;-85
2022/11/14 00:59:30;;;;;;;14.67;9.53;;;9.70;99.90;;;;;;10359321;28;20312;-78
2022/11/14 01:05:10;;;;;;;13.27;9.20;;;9.70;99.90;;;;;;10310865;28;20208;-79
2022/11/14 01:10:50;;;;;;;12.17;9.27;;;9.70;99.90;;;;;;10314160;28;20211;-83
2022/11/14 01:16:30;;;;;;;12.67;9.20;;;9.70;99.90;;;;;;10342082;28;20203;-79
2022/11/14 01:22:10;;;;;;;15.33;9.63;;;9.70;99.90;;;;;;10357608;28;20199;-79
2022/11/14 01:27:50;;;;;;;13.43;9.07;;;9.70;99.90;;;;;;10339690;28;20529;-78
2022/11/14 01:33:30;;;;;;;14.50;9.03;;;9.60;99.90;;;;;;10329628;28;20204;-87
2022/11/14 01:39:10;;;;;;;15.03;9.20;;;9.60;99.90;;;;;;10329233;28;20533;-79
2022/11/14 01:44:52;;;;;;;14.20;8.70;;;9.60;99.90;;;;;;10345804;28;20195;-80
2022/11/14 01:50:32;;;;;;;11.07;7.50;;;9.50;99.90;;;;;;10339694;28;20208;-78
2022/11/14 01:56:16;;;;;;;11.30;7.90;;;9.50;99.90;;;;;;10357064;28;20488;-87
2022/11/14 02:02:00;;;;;;;11.83;7.90;;;9.50;99.90;;;;;;10339814;28;20262;-79
2022/11/14 02:07:41;;;;;;;12.20;7.47;;;9.40;99.90;;;;;;10335759;28;20201;-80
2022/11/14 02:13:21;;;;;;;13.37;7.93;;;9.40;99.90;;;;;;10362746;28;20198;-79
2022/11/14 02:19:01;;;;;;;10.63;6.87;;;9.40;99.90;;;;;;10339310;28;20305;-79
2022/11/14 02:24:41;;;;;;;10.87;6.53;;;9.40;99.90;;;;;;10338396;28;20204;-79
2022/11/14 02:30:22;;;;;;;11.00;7.50;;;9.40;99.90;;;;;;10355850;28;20200;-79
2022/11/14 02:36:02;;;;;;;12.77;7.43;;;9.40;99.90;;;;;;10327429;28;20212;-78
2022/11/14 02:41:42;;;;;;;12.40;7.00;;;9.30;99.90;;;;;;10338301;28;20233;-79
2022/11/14 02:47:23;;;;;;;10.40;7.17;;;9.30;1.00;;;;;;10327511;28;20226;-78
2022/11/14 02:53:03;;;;;;;12.33;6.47;;;9.30;1.00;;;;;;10338467;28;20385;-87
2022/11/14 02:58:44;;;;;;;12.93;7.97;;;9.30;1.00;;;;;;10326824;28;20431;-86
2022/11/14 03:04:24;;;;;;;12.20;7.97;;;9.30;1.00;;;;;;10302440;28;20208;-86
2022/11/14 03:10:05;;;;;;;14.93;9.20;;;9.20;1.00;;;;;;10294446;28;20214;-86
2022/11/14 03:15:45;;;;;;;17.07;8.93;;;9.20;1.00;;;;;;10344462;28;20209;-87
2022/11/14 03:21:25;;;;;;;15.60;9.53;;;9.20;1.00;;;;;;10326604;28;20309;-79
2022/11/14 03:27:05;;;;;;;15.63;9.77;;;9.20;1.00;;;;;;10342953;28;20209;-85
2022/11/14 03:32:45;;;;;;;14.47;10.00;;;9.20;1.00;;;;;;10354441;28;20194;-78
2022/11/14 03:38:25;;;;;;;14.20;10.03;;;9.20;1.00;;;;;;10354910;28;20554;-86
2022/11/14 03:44:05;;;;;;;15.30;10.47;;;9.10;1.00;;;;;;10354491;28;20242;-85
2022/11/14 03:49:45;;;;;;;15.20;9.27;;;9.20;1.00;;;;;;10328410;28;20286;-79
2022/11/14 03:55:26;;;;;;;19.43;11.03;;;9.20;1.00;;;;;;10346329;28;20203;-88
2022/11/14 04:01:06;;;;;;;15.87;9.57;;;9.20;1.00;;;;;;10323133;28;20444;-87
2022/11/14 04:06:46;;;;;;;17.37;11.33;;;9.30;1.00;;;;;;10337880;28;20458;-80
2022/11/14 04:12:26;;;;;;;16.53;10.83;;;9.20;8.00;;;;;;10333653;28;20212;-79
2022/11/14 04:18:06;;;;;;;21.03;12.20;;;9.20;29.00;;;;;;10305096;28;20555;-79
2022/11/14 04:23:46;;;;;;;18.13;11.43;;;9.20;45.10;;;;;;10319430;28;20203;-85
2022/11/14 04:29:26;;;;;;;17.53;12.33;;;9.10;90.90;;;;;;10319777;28;20387;-88
2022/11/14 04:35:06;;;;;;;13.73;9.00;;;9.00;97.20;;;;;;10319120;28;20384;-79
2022/11/14 04:40:50;;;;;;;14.13;9.37;;;9.00;97.10;;;;;;10320119;28;20562;-83
2022/11/14 04:46:30;;;;;;;12.37;8.70;;;9.00;99.90;;;;;;10313816;28;20279;-78
2022/11/14 04:52:11;;;;;;;12.67;8.80;;;9.00;99.90;;;;;;10335095;28;20207;-79
2022/11/14 04:57:55;;;;;;;12.27;8.27;;;9.00;99.90;;;;;;10322273;28;20448;-83
2022/11/14 05:03:36;;;;;;;12.67;8.63;;;9.00;99.90;;;;;;10339902;28;20214;-79
2022/11/14 05:09:16;;;;;;;12.00;7.60;;;8.90;99.90;;;;;;10362534;28;20202;-79
2022/11/14 05:14:55;;;;;;;12.23;8.90;;;8.90;99.90;;;;;;10329812;28;20396;-87
2022/11/14 05:20:35;;;;;;;9.03;8.07;;;8.80;99.40;;;;;;10346477;28;20221;-85
2022/11/14 05:26:17;;;;;;;15.00;9.27;;;8.80;99.10;;;;;;10358413;28;20197;-87
2022/11/14 05:31:57;;;;;;;12.87;9.30;;;8.80;99.90;;;;;;10340370;28;20219;-82
2022/11/14 05:37:37;;;;;;;13.17;9.50;;;8.70;99.90;;;;;;10358708;28;20189;-78
2022/11/14 05:43:17;;;;;;;11.60;9.23;;;8.70;99.90;;;;;;10328724;28;20202;-79
2022/11/14 05:48:57;;;;;;;13.17;10.30;;;8.70;99.90;;;;;;10344966;28;20209;-78
2022/11/14 05:54:37;;;;;;;12.13;9.83;;;8.70;99.90;;;;;;10356789;28;20497;-79
2022/11/14 06:00:17;;;;;;;14.23;10.40;;;8.70;99.90;;;;;;10356573;28;20309;-79
2022/11/14 06:06:01;;;;;;;14.47;11.57;;;8.50;99.90;;;;;;10339437;28;20251;-86
2022/11/14 06:11:41;;;;;;;20.30;13.93;;;8.40;99.90;;;;;;10375985;28;20197;-84
2022/11/14 06:17:21;;;;;;;13.93;12.03;;;8.40;99.90;;;;;;10357279;28;20209;-82
2022/11/14 06:23:00;;;;;;;17.83;13.70;;;8.40;99.90;;;;;;10356008;28;20268;-79
2022/11/14 06:28:40;;;;;;;21.30;13.27;;;8.50;99.90;;;;;;10327389;28;20280;-81
2022/11/14 06:34:20;;;;;;;17.97;13.20;;;8.50;99.90;;;;;;10355948;28;20265;-88
2022/11/14 06:40:00;;;;;;;16.40;12.60;;;8.50;99.90;;;;;;10327067;28;20416;-85
2022/11/14 06:45:41;;;;;;;15.27;12.23;;;8.50;99.90;;;;;;10343859;28;20206;-82
2022/11/14 06:51:21;;;;;;;23.77;16.67;;;8.50;99.90;;;;;;10327082;28;20252;-84
2022/11/14 06:57:01;;;;;;;19.57;15.93;;;8.50;99.90;;;;;;10338660;28;20208;-80
2022/11/14 07:02:45;;;;;;;18.53;13.80;;;8.60;99.90;;;;;;10262943;29;20302;-81
2022/11/14 07:08:24;;;;;;;17.40;12.60;;;8.60;98.50;;;;;;10304225;28;20190;-83
2022/11/14 07:14:05;;;;;;;42.27;20.47;;;8.50;30.80;;;;;;10274806;28;20213;-81
2022/11/14 07:19:45;;;;;;;21.70;14.43;;;8.50;41.40;;;;;;10274499;28;20238;-89
2022/11/14 07:25:25;;;;;;;22.53;16.43;;;8.40;32.30;;;;;;10265815;28;20207;-85
2022/11/14 07:31:06;;;;;;;22.47;16.90;;;8.50;26.80;;;;;;10286019;28;20204;-82
2022/11/14 07:36:47;;;;;;;18.77;14.23;;;8.50;1.00;;;;;;10286010;28;20211;-81
2022/11/14 07:42:29;;;;;;;18.70;14.17;;;8.50;1.00;;;;;;10281974;29;20226;-82
2022/11/14 07:48:09;;;;;;;20.50;14.90;;;8.50;1.00;;;;;;10270628;29;20203;-87
2022/11/14 07:53:52;;;;;;;17.70;12.70;;;8.60;1.00;;;;;;10281673;29;20569;-87
2022/11/14 07:59:32;;;;;;;16.97;12.07;;;8.60;1.00;;;;;;10318166;28;20300;-80
2022/11/14 08:05:12;;;;;;;17.07;12.80;;;8.50;1.00;;;;;;10337440;28;20535;-88
2022/11/14 08:10:56;;;;;;;32.70;17.53;;;8.60;1.00;;;;;;10388344;28;20201;-80
2022/11/14 08:16:36;;;;;;;33.23;19.17;;;8.50;1.00;;;;;;10350650;28;20227;-80
2022/11/14 08:22:17;;;;;;;29.70;17.47;;;8.60;1.00;;;;;;10339179;28;20303;-81
2022/11/14 08:27:57;;;;;;;26.33;17.20;;;8.70;1.00;;;;;;10331539;28;20234;-81
2022/11/14 08:33:37;;;;;;;34.73;21.33;;;8.80;1.00;;;;;;10326497;28;20209;-79
2022/11/14 08:39:17;;;;;;;21.80;14.87;;;8.70;1.00;;;;;;10327460;28;20232;-80
2022/11/14 08:44:56;;;;;;;22.43;16.47;;;8.70;1.00;;;;;;10331628;28;20205;-81
2022/11/14 08:50:36;;;;;;;18.87;15.23;;;8.70;1.00;;;;;;10338163;28;20209;-80
2022/11/14 08:56:17;;;;;;;20.03;12.87;;;8.60;1.00;;;;;;10328515;28;20836;-84
2022/11/14 09:01:57;;;;;;;20.57;14.27;;;8.80;1.00;;;;;;10322250;28;20287;-82
2022/11/14 09:07:37;;;;;;;19.93;14.27;;;8.70;1.00;;;;;;10333968;28;20514;-81
2022/11/14 09:13:17;;;;;;;26.10;15.83;;;8.70;1.00;;;;;;10343779;28;20214;-79
2022/11/14 09:18:57;;;;;;;21.57;16.13;;;8.80;1.00;;;;;;10306693;28;20241;-87
2022/11/14 09:24:37;;;;;;;22.40;13.33;;;8.60;1.00;;;;;;10293400;28;20209;-80
2022/11/14 09:30:17;;;;;;;24.97;18.17;;;8.60;1.00;;;;;;10313774;28;20195;-86
2022/11/14 09:35:59;;;;;;;23.77;17.00;;;8.70;1.00;;;;;;10285325;28;20204;-84
2022/11/14 09:41:42;;;;;;;18.83;14.80;;;8.80;1.00;;;;;;10339421;28;20278;-83
2022/11/14 09:47:32;;;;;;;17.93;13.87;;;8.70;1.00;;;;;;10322585;28;20197;-83
2022/11/14 09:53:33;;;;;;;18.17;14.20;;;8.70;1.00;;;;;;10316410;28;20199;-86
2022/11/14 09:59:16;;;;;;;19.47;13.87;;;8.80;1.00;;;;;;10300527;28;20528;-82
2022/11/14 10:05:13;;;;;;;19.63;14.87;;;8.70;1.00;;;;;;10308905;28;20217;-84
2022/11/14 10:10:58;;;;;;;22.30;16.63;;;8.70;1.00;;;;;;10349701;28;20279;-82
2022/11/14 10:16:56;;;;;;;18.77;14.23;;;8.80;1.00;;;;;;10333439;28;20212;-88
2022/11/14 10:22:45;;;;;;;22.40;14.77;;;8.80;1.00;;;;;;10308375;28;20238;-80
2022/11/14 10:28:55;;;;;;;19.67;13.27;;;8.60;1.00;;;;;;10283624;28;20213;-80
2022/11/14 10:34:48;;;;;;;16.17;12.83;;;8.60;1.00;;;;;;10315412;28;20198;-81
2022/11/14 10:40:43;;;;;;;15.93;13.13;;;8.50;1.00;;;;;;10322176;28;20550;-82
2022/11/14 10:46:32;;;;;;;24.90;17.93;;;8.50;1.00;;;;;;10295673;28;20513;-87
2022/11/14 10:52:20;;;;;;;19.50;15.90;;;8.50;1.00;;;;;;10296443;28;20209;-86
2022/11/14 10:58:00;;;;;;;15.33;12.77;;;8.40;1.00;;;;;;10323617;28;20467;-81
2022/11/14 11:03:42;;;;;;;24.37;18.67;;;8.60;1.00;;;;;;10315292;28;20221;-86
2022/11/14 11:15:30;;;;;;;23.87;17.27;;;8.70;1.00;;;;;;10348828;28;20208;-82
2022/11/14 11:21:13;;;;;;;22.73;16.07;;;8.70;1.00;;;;;;10339966;28;20590;-80
2022/11/14 11:27:21;;;;;;;31.57;19.90;;;8.70;1.00;;;;;;10295317;28;20197;-84
2022/11/14 11:33:27;;;;;;;17.73;14.23;;;8.60;1.00;;;;;;10316166;28;20509;-81
2022/11/14 11:39:25;;;;;;;40.73;21.47;;;8.60;1.00;;;;;;10339306;28;20233;-82
2022/11/14 11:45:16;;;;;;;23.20;16.63;;;8.50;1.00;;;;;;10304584;28;20206;-79
2022/11/14 11:50:57;;;;;;;29.17;19.23;;;8.30;1.00;;;;;;10289350;28;20216;-86
2022/11/14 11:56:38;;;;;;;24.77;17.17;;;8.30;1.00;;;;;;10329170;28;20551;-77
2022/11/14 12:02:23;;;;;;;28.97;19.47;;;8.30;1.00;;;;;;10338807;28;20237;-79
2022/11/14 12:08:08;;;;;;;22.90;16.40;;;8.30;1.00;;;;;;10344078;28;20220;-80
2022/11/14 12:14:00;;;;;;;30.53;23.03;;;8.10;1.00;;;;;;10306494;28;20220;-90
2022/11/14 12:19:52;;;;;;;21.60;17.90;;;7.90;1.00;;;;;;10323651;28;20227;-83
2022/11/14 12:25:38;;;;;;;22.70;19.27;;;7.80;1.00;;;;;;10322439;28;20232;-83
2022/11/14 12:31:18;;;;;;;62.17;30.27;;;;;;;;;;10286643;28;20202;-82
2022/11/14 12:36:59;;;;;;;26.60;20.47;;;7.60;1.00;;;;;;10289320;28;20220;-83
2022/11/14 12:42:46;;;;;;;37.97;25.53;;;7.50;26.40;;;;;;10326311;28;20319;-86
2022/11/14 12:48:31;;;;;;;24.90;19.40;;;7.60;24.00;;;;;;10338139;28;20247;-78
2022/11/14 12:54:46;;;;;;;41.37;29.87;;;7.50;30.10;;;;;;10331144;28;20212;-79
2022/11/14 13:00:27;;;;;;;27.00;20.67;;;7.80;2.90;;;;;;10335042;28;20244;-80
2022/11/14 13:06:23;;;;;;;24.00;16.97;;;7.80;1.00;;;;;;10320432;28;20251;-81
2022/11/14 13:25:20;;;;;;;33.97;24.90;;;7.80;1.00;;;;;;10241095;29;20398;-81
2022/11/14 13:31:27;;;;;;;25.43;19.80;;;7.70;1.00;;;;;;10242803;29;20214;-85
2022/11/14 13:37:19;;;;;;;36.97;27.20;;;7.50;13.30;;;;;;10257860;29;20815;-81
2022/11/14 13:43:18;;;;;;;48.97;30.10;;;7.60;1.00;;;;;;10236525;29;20243;-87
2022/11/14 13:49:04;;;;;;;37.00;25.10;;;7.80;1.00;;;;;;10241244;28;20206;-85
2022/11/14 13:54:49;;;;;;;26.70;20.97;;;7.80;1.00;;;;;;10299185;28;20210;-82
2022/11/14 14:00:48;;;;;;;30.87;22.07;;;7.70;1.00;;;;;;10302156;28;20240;-87
2022/11/14 14:06:56;;;;;;;35.00;24.13;;;7.60;1.00;;;;;;10329986;28;20216;-80
2022/11/14 14:12:49;;;;;;;28.03;20.90;;;7.40;1.00;;;;;;10364328;28;20239;-81
2022/11/14 14:18:51;;;;;;;31.60;22.13;;;7.50;1.00;;;;;;10320095;28;20209;-81
2022/11/14 14:25:02;;;;;;;30.37;21.70;;;7.50;1.00;;;;;;10338581;28;20198;-78
2022/11/14 14:31:10;;;;;;;30.00;20.67;;;7.50;1.30;;;;;;10338343;28;20235;-84
2022/11/14 14:36:53;;;;;;;26.63;18.47;;;7.50;1.00;;;;;;10322215;28;20283;-83
2022/11/14 14:42:40;;;;;;;25.97;19.63;;;7.40;1.00;;;;;;10323508;28;20309;-89
2022/11/14 14:48:27;;;;;;;29.20;22.33;;;7.20;13.60;;;;;;10324232;28;20256;-85
2022/11/14 14:54:19;;;;;;;24.87;19.20;;;7.30;2.50;;;;;;10350673;28;20204;-85
2022/11/14 15:00:04;;;;;;;32.47;24.43;;;7.30;1.00;;;;;;10340224;28;20240;-80
2022/11/14 15:05:45;;;;;;;35.60;25.10;;;7.40;1.00;;;;;;10337402;28;20515;-82
2022/11/14 15:11:26;;;;;;;34.03;23.70;;;7.30;1.00;;;;;;10361723;28;20197;-82
2022/11/14 15:17:11;;;;;;;39.07;26.13;;;7.30;1.00;;;;;;10339364;28;20286;-81
2022/11/14 15:23:09;;;;;;;63.43;37.90;;;7.20;5.60;;;;;;10372674;28;20236;-82
2022/11/14 15:28:49;;;;;;;51.23;33.87;;;7.30;1.90;;;;;;10306473;28;20202;-84
2022/11/14 15:34:34;;;;;;;59.93;36.17;;;7.20;40.90;;;;;;10292720;28;20365;-81
2022/11/14 15:40:19;;;;;;;52.63;33.67;;;7.30;20.00;;;;;;10292376;28;20236;-86
2022/11/14 15:45:59;;;;;;;59.57;35.23;;;7.30;1.00;;;;;;10296291;28;20199;-81
2022/11/14 15:51:59;;;;;;;60.30;35.90;;;7.30;5.50;;;;;;10328342;28;20239;-81
2022/11/14 15:57:39;;;;;;;50.60;33.93;;;7.30;1.70;;;;;;10302194;28;20253;-82
2022/11/14 16:03:21;;;;;;;49.13;33.67;;;7.20;9.60;;;;;;10320475;28;20220;-80
2022/11/14 16:09:01;;;;;;;47.57;32.60;;;7.30;20.30;;;;;;10365144;28;20199;-83
2022/11/14 16:14:41;;;;;;;56.87;35.37;;;7.30;22.60;;;;;;10347787;28;20413;-82
2022/11/14 16:20:24;;;;;;;59.57;42.47;;;7.20;27.40;;;;;;10331843;28;20224;-82
2022/11/14 16:26:04;;;;;;;59.40;37.97;;;7.20;26.60;;;;;;10341430;28;20214;-82
2022/11/14 16:31:43;;;;;;;58.30;39.23;;;7.20;20.80;;;;;;10332007;28;20207;-80
2022/11/14 16:37:24;;;;;;;58.00;39.60;;;7.20;25.30;;;;;;10323601;28;20511;-81
2022/11/14 16:43:05;;;;;;;60.17;42.50;;;7.30;27.70;;;;;;10330273;28;20239;-81
2022/11/14 16:48:45;;;;;;;55.90;37.67;;;7.40;1.00;;;;;;10325018;28;20562;-82
2022/11/14 16:54:25;;;;;;;60.43;36.33;;;7.30;1.00;;;;;;10332846;28;20426;-80
2022/11/14 17:00:08;;;;;;;44.97;33.07;;;7.20;1.00;;;;;;10319642;28;20247;-80
2022/11/14 17:05:50;;;;;;;48.40;32.93;;;7.30;6.60;;;;;;10311405;28;20209;-80
2022/11/14 17:11:30;;;;;;;50.50;32.40;;;7.40;1.00;;;;;;10348853;28;20206;-80
2022/11/14 17:17:09;;;;;;;55.20;33.27;;;7.40;1.00;;;;;;10326658;28;20220;-80
2022/11/14 17:22:49;;;;;;;51.70;33.90;;;7.40;1.00;;;;;;10329738;28;20436;-81
2022/11/14 17:28:29;;;;;;;48.73;33.10;;;7.30;1.00;;;;;;10340519;28;20200;-80
2022/11/14 17:34:09;;;;;;;55.10;32.87;;;7.20;1.00;;;;;;10367160;28;20268;-78
2022/11/14 17:39:49;;;;;;;53.00;32.27;;;7.30;1.00;;;;;;10337894;28;20216;-79
2022/11/14 17:45:29;;;;;;;48.57;32.87;;;7.30;1.00;;;;;;10352527;28;20186;-79
2022/11/14 17:51:12;;;;;;;50.37;32.97;;;7.40;1.00;;;;;;10345269;28;20429;-80
2022/11/14 17:56:52;;;;;;;56.73;34.30;;;7.20;1.00;;;;;;10336210;28;20424;-81
2022/11/14 18:02:33;;;;;;;51.97;32.27;;;7.20;1.00;;;;;;10300096;28;20239;-80
2022/11/14 18:08:13;;;;;;;100.37;50.70;;;7.30;1.00;;;;;;10313981;28;20193;-80
2022/11/14 18:13:54;;;;;;;85.53;46.17;;;7.40;1.00;;;;;;10315151;28;20262;-81
2022/11/14 18:19:35;;;;;;;47.53;31.00;;;7.30;1.00;;;;;;10342530;28;20209;-79
2022/11/14 18:25:15;;;;;;;78.03;49.27;;;7.30;1.00;;;;;;10326987;28;20202;-80
2022/11/14 18:30:56;;;;;;;51.07;33.33;;;7.30;1.00;;;;;;10327300;28;20282;-80
2022/11/14 18:36:35;;;;;;;47.63;33.30;;;7.30;1.00;;;;;;10314715;28;20200;-80
2022/11/14 18:42:15;;;;;;;51.50;33.87;;;7.30;1.00;;;;;;10287087;28;20233;-80
2022/11/14 18:47:55;;;;;;;53.93;33.60;;;7.20;1.00;;;;;;10325844;28;20232;-80
2022/11/14 18:53:36;;;;;;;46.73;31.80;;;7.30;1.00;;;;;;10327195;28;20216;-80
2022/11/14 18:59:16;;;;;;;50.00;32.47;;;7.20;1.00;;;;;;10316063;28;20249;-80
2022/11/14 19:04:56;;;;;;;52.03;34.47;;;7.30;1.00;;;;;;10343685;28;20215;-80
2022/11/14 19:10:36;;;;;;;56.03;34.90;;;7.30;1.00;;;;;;10298296;28;20209;-81
2022/11/14 19:16:15;;;;;;;48.77;34.17;;;7.20;1.00;;;;;;10336262;28;20193;-80
2022/11/14 19:21:55;;;;;;;48.63;33.47;;;7.20;1.00;;;;;;10342178;28;20237;-80
2022/11/14 19:27:35;;;;;;;48.00;32.03;;;7.10;1.00;;;;;;10345630;28;20204;-80
2022/11/14 19:33:15;;;;;;;47.73;34.10;;;7.00;5.60;;;;;;10333837;28;20203;-80
2022/11/14 19:38:56;;;;;;;48.50;32.80;;;7.00;1.00;;;;;;10317144;28;20196;-80
2022/11/14 19:44:36;;;;;;;57.57;35.90;;;6.90;30.00;;;;;;10334015;28;20232;-80
2022/11/14 19:50:16;;;;;;;51.83;34.50;;;6.90;53.00;;;;;;10348902;28;20192;-80
2022/11/14 19:56:07;;;;;;;54.13;34.70;;;7.00;28.50;;;;;;10349690;28;20200;-80
2022/11/14 20:01:53;;;;;;;52.70;34.67;;;7.10;11.80;;;;;;10348782;28;20236;-80
2022/11/14 20:07:36;;;;;;;48.30;32.57;;;7.10;21.90;;;;;;10358638;28;20503;-80
2022/11/14 20:13:16;;;;;;;42.47;29.53;;;7.00;16.80;;;;;;10304216;28;20211;-82
2022/11/14 20:18:59;;;;;;;50.80;34.90;;;7.10;27.30;;;;;;10343966;28;20201;-81
2022/11/14 20:24:39;;;;;;;48.00;34.10;;;7.10;16.00;;;;;;10314406;28;20533;-80
2022/11/14 20:30:18;;;;;;;47.60;33.33;;;7.00;40.90;;;;;;10291020;28;20209;-80
2022/11/14 20:36:07;;;;;;;47.97;32.57;;;6.90;75.00;;;;;;10307170;28;20426;-80
2022/11/14 20:41:47;;;;;;;55.93;34.73;;;7.10;28.50;;;;;;10307496;28;20229;-80
2022/11/14 20:47:28;;;;;;;51.07;35.60;;;7.10;25.00;;;;;;10307107;28;20198;-81
2022/11/14 20:53:08;;;;;;;49.13;34.13;;;7.00;14.60;;;;;;10347302;28;20216;-80
2022/11/14 20:58:50;;;;;;;52.03;35.00;;;6.90;62.60;;;;;;10331460;28;20266;-80
2022/11/14 21:04:30;;;;;;;46.10;31.73;;;6.90;59.20;;;;;;10330538;28;20290;-80
2022/11/14 21:16:09;;;;;;;48.23;32.40;;;7.00;37.00;;;;;;10327788;28;20220;-80
2022/11/14 21:21:49;;;;;;;51.40;34.17;;;7.10;76.00;;;;;;10345462;28;20220;-81
2022/11/14 21:27:31;;;;;;;62.23;36.83;;;7.10;80.70;;;;;;10289437;28;20212;-80
2022/11/14 21:33:10;;;;;;;46.07;31.60;;;7.10;56.10;;;;;;10289182;28;20209;-80
2022/11/14 21:38:51;;;;;;;55.67;35.33;;;7.10;91.90;;;;;;10311524;28;20227;-80
2022/11/14 21:44:31;;;;;;;49.80;32.43;;;7.10;74.30;;;;;;10339265;28;20236;-81
2022/11/14 21:50:11;;;;;;;48.90;33.17;;;7.20;87.60;;;;;;10328919;28;20204;-80
2022/11/14 21:55:51;;;;;;;55.57;35.37;;;7.20;83.30;;;;;;10339231;28;20209;-80
2022/11/14 22:07:29;;;;;;;53.53;32.27;;;7.20;78.70;;;;;;10343474;28;20207;-80
2022/11/14 22:13:11;;;;;;;56.97;34.53;;;7.20;66.80;;;;;;10313991;28;20209;-80
2022/11/14 22:18:51;;;;;;;72.00;43.53;;;7.30;69.00;;;;;;10322372;28;20408;-80
2022/11/14 22:24:31;;;;;;;57.30;36.40;;;7.20;94.20;;;;;;10327314;28;20244;-80
2022/11/14 22:30:12;;;;;;;66.27;41.27;;;7.20;99.90;;;;;;10323003;28;20219;-81
2022/11/14 22:35:52;;;;;;;54.03;36.43;;;7.20;78.70;;;;;;10287261;28;20411;-81
2022/11/14 22:41:32;;;;;;;57.77;35.30;;;7.20;99.90;;;;;;10287132;28;20232;-80
2022/11/14 22:47:12;;;;;;;58.73;36.50;;;7.20;99.90;;;;;;10287821;28;20512;-81
2022/11/14 22:52:53;;;;;;;57.77;36.60;;;7.20;92.70;;;;;;10325647;28;20175;-82
2022/11/14 22:58:35;;;;;;;56.37;35.17;;;7.10;99.90;;;;;;10330628;28;20551;-80
2022/11/14 23:04:15;;;;;;;61.40;35.77;;;7.10;99.90;;;;;;10300701;28;20291;-81
2022/11/14 23:09:55;;;;;;;62.53;36.73;;;7.10;99.90;;;;;;10300218;28;20204;-80
2022/11/14 23:15:36;;;;;;;60.63;35.00;;;7.00;99.90;;;;;;10335822;28;20211;-81
2022/11/14 23:21:27;;;;;;;62.37;37.17;;;7.00;99.90;;;;;;10334193;28;20233;-82
2022/11/14 23:27:07;;;;;;;65.63;39.17;;;7.00;99.90;;;;;;10362673;28;20394;-81
2022/11/14 23:32:47;;;;;;;58.93;34.67;;;7.00;99.90;;;;;;10310211;28;20205;-81
2022/11/14 23:38:30;;;;;;;67.47;36.73;;;7.00;99.90;;;;;;10304604;28;20202;-79
2022/11/14 23:44:11;;;;;;;68.83;39.00;;;7.00;99.90;;;;;;10311539;28;20243;-81
2022/11/14 23:49:50;;;;;;;66.00;36.97;;;6.90;99.90;;;;;;10333424;28;20205;-81
2022/11/14 23:55:30;;;;;;;70.50;40.17;;;6.90;99.90;;;;;;10361485;28;20191;-82
